Terminal Aerodrome Forecast
Issued by NWS

Home | Current Version | Previous Version | Text Only | Print | Product List | Glossary On
Versions: 1 2 3 4 5 6 7 8 9 10 11 12 13 14 15 16 17 18 19 20 21 22 23 24 25 26 27 28 29 30 31 32 33 34
000
FTUS45 KPSR 181700
TAFPHX
TAF
KPHX 181723Z 1818/1918 VRB05KT P6SM SCT060
     FM182100 25005KT P6SM VCSH SCT060
      TEMPO 1822/1901 VRB15G25KT BKN060
     FM190300 21005KT P6SM VCSH BKN060
     FM190600 VRB05KT P6SM FEW070=

USA.gov is the U.S. government's official web portal to all federal, state and local government web resources and services.